Weather at Beringin Airport [CLOSED]

Public forecast

Using degrees Celsius for public forecast. Weather courtesy of forecast.io.

Closest aviation weather report (METAR) to Beringin Airport

Closest report is Sultan Aji Muhammad Sulaiman Sepinggan International Airport, 121.7 nm (225.3 km) E.

2024/04/24 15:00 (retrieved 29 minutes ago)

WALL 241500Z 36004KT 7000 FEW020 27/26 Q1010 NOSIG

Closest aviation forecast (TAF) to Beringin Airport

Forecast is more than 6 hours old.

Closest forecast is Sultan Aji Muhammad Sulaiman Sepinggan International Airport, 121.7 nm (225.3 km) E.

2024/04/24 06:00 (retrieved 9 hours ago)

TAF WALL 240500Z 2406/2512 22003KT 4000 RA SCT016 BECMG 2407/2409 9999 NSW SCT020